Main page
METAR-TAF:

METAR-TAF

Airports :

Palma de Mallorca Airport

Palma de Mallorca, Spain

latitude: 39-33N, longitude: 002-44E, elevation: 4 m

Current weather observation

The report was made 22 minutes ago, at 10:00 UTC
Wind 7 kt from the Northeast
Temperature 17°C
Humidity 82%
Pressure 1014 hPa
Visibility 10 km or more
Few clouds at a height of 600 ft

METAR: LEPA 061000Z 05007KT 9999 FEW006 17/14 Q1014 NOSIG

Time: 11:22 (10:22 UTC)

Forecast

The report was made 5 hours and 22 minutes ago, at 05:00 UTC
Forecast valid from 06 at 06 UTC to 07 at 06 UTC
Wind 3 kt from variable directions
Visibility 10 km or more
Few clouds at a height of 1500 ft
Becoming
from 06 at 07 UTC to 06 at 10 UTC
Wind 10 kt from the East/Northeast
Becoming
from 06 at 18 UTC to 06 at 20 UTC
Wind 3 kt from variable directions

TAF: LEPA 060500Z 0606/0706 VRB03KT 9999 FEW015 TX20/0612Z TN09/0606Z BECMG 0607/0610 06010KT BECMG 0618/0620 VRB03KT

Weather observations and forecasts of more than 4000 airports (METAR and TAF reports).

The available stations are represented by yellow and red dots on the map.

Hover mouse over dot to see the name of the station.

Then click to see weather observations and forecasts.

To change the map : click on the green buttons with a black cross to zoom in, on the green button with a dash to zoom out, or on the green arrows for adjacent maps.


METAR-TAF: